createdAt,value
2023-03-02T00:01:39.683Z,7.80
2023-03-02T00:04:09.903Z,7.53
2023-03-02T00:06:37.694Z,7.95
2023-03-02T00:09:06.308Z,7.32
2023-03-02T00:11:35.900Z,7.95
2023-03-02T00:14:03.028Z,8.32
2023-03-02T00:16:30.650Z,7.50
2023-03-02T00:18:58.081Z,9.07
2023-03-02T00:21:25.244Z,7.75
2023-03-02T00:23:52.957Z,7.88
2023-03-02T00:26:20.175Z,7.75
2023-03-02T00:28:47.827Z,8.20
2023-03-02T00:31:15.398Z,8.50
2023-03-02T00:33:42.746Z,8.05
2023-03-02T00:36:21.421Z,8.07
2023-03-02T00:38:49.040Z,8.23
2023-03-02T00:41:16.969Z,8.50
2023-03-02T00:43:44.282Z,9.50
2023-03-02T00:46:20.135Z,8.75
2023-03-02T00:48:47.423Z,8.65
2023-03-02T00:51:15.234Z,8.18
2023-03-02T00:53:42.940Z,8.75
2023-03-02T00:56:10.923Z,8.77
2023-03-02T00:58:42.342Z,9.50
2023-03-02T01:01:13.770Z,9.07
2023-03-02T01:03:47.410Z,8.43
2023-03-02T01:06:18.713Z,9.00
2023-03-02T01:08:46.273Z,9.10
2023-03-02T01:11:15.456Z,9.45
2023-03-02T01:13:42.666Z,10.13
2023-03-02T01:16:09.916Z,9.38
2023-03-02T01:18:38.946Z,8.25
2023-03-02T01:21:10.861Z,8.55
2023-03-02T01:23:37.976Z,8.52
2023-03-02T01:26:05.166Z,9.70
2023-03-02T01:28:32.792Z,10.02
2023-03-02T01:31:02.769Z,9.38
2023-03-02T01:33:31.121Z,8.57
2023-03-02T01:35:58.430Z,8.82
2023-03-02T01:38:25.797Z,8.95
2023-03-02T01:40:52.985Z,9.27
2023-03-02T01:43:20.114Z,9.23
2023-03-02T01:46:05.301Z,8.70
2023-03-02T01:48:55.077Z,8.00
2023-03-02T01:51:44.014Z,7.97
2023-03-02T01:54:23.200Z,8.40
2023-03-02T01:56:59.516Z,8.95
2023-03-02T01:59:30.820Z,8.95
2023-03-02T02:02:01.797Z,8.05
2023-03-02T02:04:31.646Z,7.00
2023-03-02T02:07:03.567Z,7.38
2023-03-02T02:09:34.837Z,7.43
2023-03-02T02:12:02.615Z,8.38
2023-03-02T02:14:29.858Z,9.00
2023-03-02T02:16:57.057Z,8.55
2023-03-02T02:19:53.026Z,7.85
2023-03-02T02:22:37.104Z,8.32
2023-03-02T02:25:18.820Z,8.20
2023-03-02T02:27:47.118Z,9.30
2023-03-02T02:30:16.750Z,7.88
2023-03-02T02:32:46.952Z,7.32
2023-03-02T02:35:20.294Z,8.43
2023-03-02T02:37:52.888Z,8.05
2023-03-02T02:40:38.402Z,8.38
2023-03-02T02:43:07.716Z,8.23
2023-03-02T02:45:36.496Z,8.23
2023-03-02T02:48:03.846Z,8.45
2023-03-02T02:50:34.158Z,8.27
2023-03-02T02:53:07.300Z,8.30
2023-03-02T02:55:35.943Z,8.07
2023-03-02T02:58:14.040Z,7.90
2023-03-02T03:00:41.276Z,9.15
2023-03-02T03:03:31.908Z,7.95
2023-03-02T03:06:04.795Z,7.65
2023-03-02T03:08:43.946Z,8.98
2023-03-02T03:11:23.575Z,9.38
2023-03-02T03:14:08.767Z,8.55
2023-03-02T03:16:38.639Z,8.10
2023-03-02T03:19:12.459Z,7.60
2023-03-02T03:21:39.789Z,9.55
2023-03-02T03:24:07.395Z,9.57
2023-03-02T03:26:35.209Z,8.93
2023-03-02T03:29:04.325Z,8.57
2023-03-02T03:31:31.748Z,7.93
2023-03-02T03:34:00.867Z,9.05
2023-03-02T03:36:33.125Z,8.85
2023-03-02T03:39:01.386Z,8.52
2023-03-02T03:41:29.730Z,9.38
2023-03-02T03:43:57.598Z,9.55
2023-03-02T03:46:25.994Z,8.70
2023-03-02T03:48:53.179Z,9.30
2023-03-02T03:51:20.483Z,9.50
2023-03-02T03:53:59.752Z,10.55
2023-03-02T03:56:34.054Z,9.52
2023-03-02T03:59:08.634Z,9.50
2023-03-02T04:01:46.494Z,9.10
2023-03-02T04:04:21.864Z,9.57
2023-03-02T04:06:49.937Z,9.90
2023-03-02T04:09:20.201Z,9.48
2023-03-02T04:11:50.894Z,10.73
2023-03-02T04:14:19.968Z,10.88
2023-03-02T04:16:47.101Z,9.52
2023-03-02T04:19:14.979Z,10.10
2023-03-02T04:21:45.631Z,9.63
2023-03-02T04:24:14.682Z,11.15
2023-03-02T04:26:43.272Z,9.80
2023-03-02T04:29:12.100Z,10.65
2023-03-02T04:31:40.682Z,9.48
2023-03-02T04:34:08.682Z,10.88
2023-03-02T04:36:39.672Z,10.00
2023-03-02T04:39:12.813Z,10.18
2023-03-02T04:41:41.174Z,11.95
2023-03-02T04:44:08.296Z,10.68
2023-03-02T04:46:35.779Z,10.93
2023-03-02T04:49:04.459Z,10.35
2023-03-02T04:51:35.421Z,9.70
2023-03-02T04:54:06.449Z,12.05
2023-03-02T04:56:34.442Z,10.48
2023-03-02T04:59:01.854Z,11.27
2023-03-02T05:01:29.029Z,10.00
2023-03-02T05:03:56.672Z,9.77
2023-03-02T05:06:25.284Z,11.02
2023-03-02T05:08:53.784Z,10.70
2023-03-02T05:11:30.012Z,11.35
2023-03-02T05:14:03.060Z,11.93
2023-03-02T05:16:32.756Z,10.55
2023-03-02T05:19:01.356Z,10.55
2023-03-02T05:21:28.766Z,11.05
2023-03-02T05:23:56.128Z,12.02
2023-03-02T05:26:23.762Z,10.48
2023-03-02T05:28:53.011Z,10.45
2023-03-02T05:31:30.252Z,11.18
2023-03-02T05:33:58.197Z,10.10
2023-03-02T05:36:25.313Z,10.25
2023-03-02T05:38:52.406Z,10.30
2023-03-02T05:41:19.570Z,11.00
2023-03-02T05:43:46.773Z,12.10
2023-03-02T05:46:14.124Z,11.00
2023-03-02T05:48:42.404Z,10.77
2023-03-02T05:51:09.808Z,10.65
2023-03-02T05:53:36.970Z,10.77
2023-03-02T05:56:04.387Z,10.27
2023-03-02T05:58:31.661Z,10.73
2023-03-02T06:00:59.189Z,10.18
2023-03-02T06:03:26.430Z,11.25
2023-03-02T06:05:53.608Z,10.63
2023-03-02T06:08:22.009Z,11.18
2023-03-02T06:10:50.978Z,10.20
2023-03-02T06:13:18.421Z,10.75
2023-03-02T06:15:45.769Z,11.35
2023-03-02T06:18:13.868Z,11.18
2023-03-02T06:20:42.121Z,11.13
2023-03-02T06:23:09.232Z,11.60
2023-03-02T06:25:38.863Z,11.75
2023-03-02T06:28:05.939Z,12.70
2023-03-02T06:30:33.042Z,12.45
2023-03-02T06:33:00.404Z,11.38
2023-03-02T06:35:27.663Z,12.77
2023-03-02T06:37:54.797Z,11.95
2023-03-02T06:40:21.891Z,13.52
2023-03-02T06:42:49.181Z,12.50
2023-03-02T06:45:16.420Z,12.75
2023-03-02T06:47:43.492Z,12.35
2023-03-02T06:50:11.436Z,11.90
2023-03-02T06:52:38.711Z,13.18
2023-03-02T06:55:06.639Z,11.68
2023-03-02T06:57:34.343Z,12.20
2023-03-02T07:00:09.657Z,13.18
2023-03-02T07:02:37.357Z,11.82
2023-03-02T07:05:05.436Z,12.38
2023-03-02T07:07:32.621Z,12.73
2023-03-02T07:09:59.723Z,13.75
2023-03-02T07:12:27.170Z,14.15
2023-03-02T07:14:54.293Z,15.40
2023-03-02T07:17:21.370Z,13.55
2023-03-02T07:19:48.439Z,14.20
2023-03-02T07:22:15.651Z,14.38
2023-03-02T07:24:44.899Z,13.45
2023-03-02T07:27:12.680Z,13.65
2023-03-02T07:29:39.740Z,14.20
2023-03-02T07:32:07.050Z,13.02
2023-03-02T07:34:34.297Z,14.32
2023-03-02T07:37:01.380Z,13.70
2023-03-02T07:39:28.516Z,14.68
2023-03-02T07:42:03.193Z,14.93
2023-03-02T07:44:31.277Z,15.50
2023-03-02T07:46:58.876Z,14.50
2023-03-02T07:49:26.341Z,13.05
2023-03-02T07:51:53.428Z,13.73
2023-03-02T07:54:20.810Z,15.90
2023-03-02T07:56:48.274Z,14.40
2023-03-02T07:59:15.341Z,16.50
2023-03-02T08:01:42.538Z,14.65
2023-03-02T08:04:09.753Z,14.50
2023-03-02T08:06:36.964Z,15.07
2023-03-02T08:09:05.283Z,14.98
2023-03-02T08:11:32.999Z,15.52
2023-03-02T08:14:01.652Z,13.13
2023-03-02T08:16:30.080Z,15.05
2023-03-02T08:18:59.769Z,16.35
2023-03-02T08:21:28.652Z,16.20
2023-03-02T08:23:55.843Z,15.27
2023-03-02T08:26:23.036Z,15.90
2023-03-02T08:28:50.266Z,16.52
2023-03-02T08:31:17.414Z,14.45
2023-03-02T08:33:46.105Z,16.48
2023-03-02T08:36:16.589Z,16.30
2023-03-02T08:38:43.935Z,16.48
2023-03-02T08:41:13.949Z,15.70
2023-03-02T08:43:41.416Z,16.58
2023-03-02T08:46:09.039Z,15.80
2023-03-02T08:48:36.166Z,15.73
2023-03-02T08:51:07.150Z,16.83
2023-03-02T08:53:38.074Z,15.73
2023-03-02T08:56:07.602Z,15.80
2023-03-02T08:58:34.741Z,15.85
2023-03-02T09:01:01.854Z,15.15
2023-03-02T09:03:29.042Z,15.27
2023-03-02T09:05:56.173Z,16.10
2023-03-02T09:08:23.291Z,16.42
2023-03-02T09:10:50.319Z,17.55
2023-03-02T09:13:17.392Z,15.98
2023-03-02T09:15:45.483Z,15.35
2023-03-02T09:18:12.609Z,15.85
2023-03-02T09:20:39.838Z,16.20
2023-03-02T09:23:07.127Z,16.23
2023-03-02T09:25:34.206Z,16.05
2023-03-02T09:28:01.351Z,15.43
2023-03-02T09:30:28.802Z,15.02
2023-03-02T09:32:56.062Z,14.77
2023-03-02T09:35:23.218Z,14.35
2023-03-02T09:37:50.309Z,14.68
2023-03-02T09:40:24.468Z,13.00
2023-03-02T09:43:22.780Z,13.80
2023-03-02T10:17:53.042Z,11.23
2023-03-02T10:20:34.928Z,10.18
2023-03-02T10:23:26.525Z,10.80
2023-03-02T10:26:01.268Z,10.95
2023-03-02T10:28:38.606Z,10.93
2023-03-02T10:31:24.597Z,11.52
2023-03-02T10:33:51.826Z,11.07
2023-03-02T10:36:27.066Z,10.40
2023-03-02T10:38:56.166Z,11.15
2023-03-02T10:41:52.216Z,11.52
2023-03-02T10:44:45.611Z,11.25
2023-03-02T10:47:41.880Z,13.35
2023-03-02T10:50:22.127Z,12.43
2023-03-02T10:52:59.459Z,14.43
2023-03-02T10:55:28.012Z,13.60
2023-03-02T10:58:18.055Z,12.95
2023-03-02T11:00:56.494Z,13.38
2023-03-02T11:03:24.261Z,13.38
2023-03-02T11:05:51.766Z,14.90
2023-03-02T11:08:20.509Z,15.13
2023-03-02T11:11:01.922Z,14.43
2023-03-02T11:13:32.816Z,14.43
2023-03-02T11:16:19.578Z,14.38
2023-03-02T11:18:52.488Z,14.57
2023-03-02T11:21:42.184Z,15.25
2023-03-02T11:24:30.440Z,14.55
2023-03-02T11:27:02.346Z,14.13
2023-03-02T11:29:44.598Z,16.05
2023-03-02T11:32:18.009Z,14.13
2023-03-02T11:34:50.470Z,14.23
2023-03-02T11:37:21.908Z,14.63
2023-03-02T11:39:56.274Z,13.23
2023-03-02T11:42:33.732Z,13.63
2023-03-02T11:45:22.785Z,14.05
2023-03-02T11:48:12.975Z,14.45
2023-03-02T11:51:02.980Z,14.80
2023-03-02T11:53:58.601Z,14.48
2023-03-02T11:56:26.914Z,13.18
2023-03-02T11:59:03.098Z,12.73
2023-03-02T12:01:31.715Z,14.25
2023-03-02T12:04:35.556Z,15.30
2023-03-02T12:07:17.877Z,15.25
2023-03-02T12:09:44.952Z,14.88
2023-03-02T12:12:42.954Z,14.13
2023-03-02T12:15:51.045Z,14.57
2023-03-02T12:21:06.537Z,13.75
2023-03-02T12:23:41.056Z,14.27
2023-03-02T12:26:26.164Z,15.30
2023-03-02T12:29:04.041Z,14.15
2023-03-02T12:31:50.755Z,14.82
2023-03-02T12:34:51.902Z,13.55
2023-03-02T12:37:26.424Z,14.93
2023-03-02T12:40:29.015Z,14.93
2023-03-02T12:43:20.190Z,15.90
2023-03-02T12:46:16.404Z,14.55
2023-03-02T12:48:58.611Z,13.63
2023-03-02T12:51:29.830Z,14.05
2023-03-02T12:54:07.496Z,14.70
2023-03-02T12:56:34.984Z,15.20
2023-03-02T12:59:02.350Z,14.60
2023-03-02T13:01:34.568Z,14.50
2023-03-02T13:04:01.816Z,13.95
2023-03-02T13:06:32.064Z,13.65
2023-03-02T13:09:00.621Z,14.50
2023-03-02T13:11:32.418Z,13.70
2023-03-02T13:14:03.842Z,13.57
2023-03-02T13:16:33.972Z,13.10
2023-03-02T13:19:09.260Z,14.02
2023-03-02T13:21:38.816Z,12.95
2023-03-02T13:24:34.568Z,14.05
2023-03-02T13:27:07.422Z,12.95
2023-03-02T13:29:34.581Z,14.18
2023-03-02T13:32:22.166Z,13.05
2023-03-02T13:34:55.562Z,14.52
2023-03-02T13:37:43.927Z,13.50
2023-03-02T13:40:23.426Z,12.02
2023-03-02T13:42:51.480Z,13.18
2023-03-02T13:45:27.766Z,12.93
2023-03-02T13:47:56.993Z,13.02
2023-03-02T13:50:25.712Z,13.52
2023-03-02T13:52:56.150Z,13.38
2023-03-02T13:55:24.295Z,13.05
2023-03-02T13:57:54.698Z,11.70
2023-03-02T14:00:29.223Z,13.00
2023-03-02T14:02:56.369Z,12.25
2023-03-02T14:05:27.110Z,12.48
2023-03-02T14:07:54.317Z,13.00
2023-03-02T14:10:22.064Z,11.95
2023-03-02T14:13:25.662Z,11.52
2023-03-02T14:15:54.299Z,11.90
2023-03-02T14:18:39.921Z,12.32
2023-03-02T14:21:22.204Z,11.60
2023-03-02T14:23:50.415Z,11.35
2023-03-02T14:26:40.925Z,11.70
2023-03-02T14:29:29.308Z,11.43
2023-03-02T14:32:00.305Z,10.48
2023-03-02T14:34:27.499Z,9.95
2023-03-02T14:36:58.603Z,10.95
2023-03-02T14:39:38.804Z,11.95
2023-03-02T14:42:11.463Z,11.57
2023-03-02T14:44:38.642Z,10.38
2023-03-02T14:47:05.863Z,12.23
2023-03-02T14:49:33.267Z,10.60
2023-03-02T14:52:15.326Z,10.60
2023-03-02T14:54:54.049Z,11.27
2023-03-02T14:57:27.065Z,10.38
2023-03-02T14:59:55.868Z,9.88
2023-03-02T15:02:27.009Z,10.93
2023-03-02T15:04:57.600Z,10.23
2023-03-02T15:07:27.364Z,10.23
2023-03-02T15:09:55.973Z,10.48
2023-03-02T15:12:23.145Z,10.50
2023-03-02T15:14:50.414Z,10.90
2023-03-02T15:17:17.537Z,10.88
2023-03-02T15:19:44.600Z,10.70
2023-03-02T15:22:13.310Z,10.30
2023-03-02T15:24:40.528Z,10.00
2023-03-02T15:27:07.724Z,11.00
2023-03-02T15:29:34.899Z,10.40
2023-03-02T15:32:02.284Z,9.90
2023-03-02T15:34:29.427Z,10.23
2023-03-02T15:36:56.678Z,10.68
2023-03-02T15:39:23.742Z,10.65
2023-03-02T15:41:50.877Z,10.63
2023-03-02T15:44:23.046Z,10.88
2023-03-02T15:46:53.134Z,11.57
2023-03-02T15:49:23.066Z,9.40
2023-03-02T15:51:54.752Z,10.90
2023-03-02T15:54:22.227Z,10.95
2023-03-02T15:56:53.477Z,10.30
2023-03-02T15:59:22.009Z,10.18
2023-03-02T16:01:49.360Z,10.10
2023-03-02T16:04:16.634Z,10.00
2023-03-02T16:06:44.551Z,10.90
2023-03-02T16:09:11.878Z,9.10
2023-03-02T16:11:39.130Z,9.68
2023-03-02T16:14:06.247Z,8.90
2023-03-02T16:16:33.853Z,8.13
2023-03-02T16:19:01.364Z,8.38
2023-03-02T16:21:29.212Z,8.43
2023-03-02T16:24:03.425Z,8.80
2023-03-02T16:26:33.442Z,8.52
2023-03-02T16:29:01.190Z,8.23
2023-03-02T16:31:33.346Z,8.85
2023-03-02T16:34:03.929Z,9.27
2023-03-02T16:36:31.155Z,9.38
2023-03-02T16:38:58.488Z,9.27
2023-03-02T16:41:26.116Z,8.73
2023-03-02T16:43:55.604Z,8.43
2023-03-02T16:46:24.412Z,7.78
2023-03-02T16:48:51.616Z,8.30
2023-03-02T16:51:20.097Z,10.07
2023-03-02T16:53:47.513Z,8.23
2023-03-02T16:56:15.268Z,9.25
2023-03-02T16:58:42.927Z,8.63
2023-03-02T17:01:13.402Z,8.77
2023-03-02T17:03:40.590Z,8.27
2023-03-02T17:06:09.541Z,8.07
2023-03-02T17:08:37.182Z,7.60
2023-03-02T17:11:04.775Z,8.82
2023-03-02T17:13:32.277Z,7.80
2023-03-02T17:15:59.667Z,8.10
2023-03-02T17:18:27.792Z,7.72
2023-03-02T17:20:57.190Z,8.07
2023-03-02T17:23:24.874Z,9.10
2023-03-02T17:25:52.137Z,8.18
2023-03-02T17:28:19.660Z,8.30
2023-03-02T17:30:47.038Z,8.25
2023-03-02T17:33:14.273Z,8.57
2023-03-02T17:35:42.652Z,8.35
2023-03-02T17:38:10.403Z,8.48
2023-03-02T17:40:37.482Z,7.95
2023-03-02T17:43:04.620Z,8.25
2023-03-02T17:45:31.779Z,7.80
2023-03-02T17:47:59.298Z,8.52
2023-03-02T17:50:27.992Z,8.32
2023-03-02T17:52:55.656Z,7.85
2023-03-02T17:55:22.950Z,8.18
2023-03-02T17:57:50.090Z,8.15
2023-03-02T18:00:19.674Z,8.73
2023-03-02T18:02:46.885Z,7.63
2023-03-02T18:05:14.123Z,8.00
2023-03-02T18:07:41.201Z,7.50
2023-03-02T18:10:08.822Z,7.82
2023-03-02T18:12:36.394Z,7.95
2023-03-02T18:15:04.075Z,6.90
2023-03-02T18:17:31.425Z,7.85
2023-03-02T18:19:58.594Z,7.38
2023-03-02T18:22:26.269Z,7.63
2023-03-02T18:24:53.544Z,8.38
2023-03-02T18:27:20.843Z,8.02
2023-03-02T18:29:48.040Z,8.95
2023-03-02T18:32:15.250Z,7.15
2023-03-02T18:34:42.613Z,7.88
2023-03-02T18:37:09.906Z,7.63
2023-03-02T18:39:38.042Z,7.78
2023-03-02T18:42:06.317Z,8.15
2023-03-02T18:44:34.532Z,8.60
2023-03-02T18:47:02.190Z,7.38
2023-03-02T18:49:29.953Z,7.90
2023-03-02T18:51:57.540Z,7.03
2023-03-02T18:54:24.803Z,6.82
2023-03-02T18:56:52.036Z,7.70
2023-03-02T18:59:19.454Z,8.18
2023-03-02T19:01:47.456Z,8.00
2023-03-02T19:04:15.106Z,6.63
2023-03-02T19:06:43.497Z,7.13
2023-03-02T19:09:11.357Z,8.07
2023-03-02T19:11:38.561Z,8.30
2023-03-02T19:14:05.760Z,8.02
2023-03-02T19:16:33.308Z,7.72
2023-03-02T19:19:00.601Z,7.70
2023-03-02T19:21:27.752Z,6.35
2023-03-02T19:23:55.053Z,8.00
2023-03-02T19:26:22.119Z,7.20
2023-03-02T19:28:49.268Z,7.53
2023-03-02T19:31:16.720Z,7.63
2023-03-02T19:33:45.423Z,7.85
2023-03-02T19:36:13.479Z,6.88
2023-03-02T19:38:44.654Z,7.72
2023-03-02T19:41:15.402Z,7.30
2023-03-02T19:43:43.051Z,6.95
2023-03-02T19:46:12.750Z,7.22
2023-03-02T19:48:40.637Z,7.60
2023-03-02T19:51:09.156Z,7.82
2023-03-02T19:53:38.435Z,8.07
2023-03-02T19:56:08.464Z,7.47
2023-03-02T19:58:36.621Z,7.43
2023-03-02T20:01:04.597Z,7.28
2023-03-02T20:03:31.842Z,7.40
2023-03-02T20:05:59.729Z,7.78
2023-03-02T20:08:27.092Z,8.45
2023-03-02T20:10:54.348Z,8.63
2023-03-02T20:13:21.698Z,7.55
2023-03-02T20:15:49.003Z,6.97
2023-03-02T20:18:19.237Z,6.70
2023-03-02T20:20:48.666Z,7.53
2023-03-02T20:23:17.702Z,8.52
2023-03-02T20:25:47.198Z,7.72
2023-03-02T20:28:18.915Z,7.13
2023-03-02T20:30:55.455Z,6.53
2023-03-02T20:35:53.024Z,7.32
2023-03-02T20:38:29.494Z,7.20
2023-03-02T20:40:57.260Z,7.90
2023-03-02T20:43:24.981Z,6.72
2023-03-02T20:45:52.193Z,7.00
2023-03-02T20:48:21.512Z,7.30
2023-03-02T20:50:49.805Z,7.03
2023-03-02T20:53:16.974Z,7.60
2023-03-02T20:55:44.224Z,6.60
2023-03-02T20:58:12.699Z,7.47
2023-03-02T21:00:40.119Z,6.57
2023-03-02T21:03:08.105Z,7.05
2023-03-02T21:05:38.334Z,7.47
2023-03-02T21:08:05.762Z,7.45
2023-03-02T21:10:38.053Z,7.90
2023-03-02T21:13:07.760Z,7.03
2023-03-02T21:15:36.251Z,6.45
2023-03-02T21:18:03.583Z,7.40
2023-03-02T21:20:34.274Z,7.32
2023-03-02T21:23:02.001Z,7.38
2023-03-02T21:25:29.118Z,7.63
2023-03-02T21:27:56.423Z,7.70
2023-03-02T21:30:27.768Z,7.22
2023-03-02T21:32:55.522Z,7.65
2023-03-02T21:35:23.857Z,7.78
2023-03-02T21:37:54.862Z,7.15
2023-03-02T21:40:25.936Z,6.63
2023-03-02T21:42:54.456Z,6.35
2023-03-02T21:45:23.028Z,6.30
2023-03-02T21:47:50.596Z,7.32
2023-03-02T21:50:22.838Z,6.95
2023-03-02T21:52:50.032Z,8.80
2023-03-02T21:55:17.295Z,7.43
2023-03-02T21:57:45.080Z,6.95
2023-03-02T22:00:27.590Z,7.68
2023-03-02T22:02:55.273Z,7.60
2023-03-02T22:05:22.717Z,6.50
2023-03-02T22:07:50.032Z,6.43
2023-03-02T22:10:23.259Z,7.25
2023-03-02T22:13:13.396Z,6.53
2023-03-02T22:15:40.653Z,6.70
2023-03-02T22:18:19.524Z,6.35
2023-03-02T22:20:51.192Z,7.03
2023-03-02T22:23:21.665Z,6.35
2023-03-02T22:25:54.084Z,7.57
2023-03-02T22:28:25.793Z,6.72
2023-03-02T22:30:57.626Z,6.88
2023-03-02T22:33:29.554Z,6.93
2023-03-02T22:36:04.617Z,6.20
2023-03-02T22:38:32.005Z,5.80
2023-03-02T22:40:59.248Z,6.40
2023-03-02T22:43:31.780Z,6.78
2023-03-02T22:46:11.448Z,6.57
2023-03-02T22:48:38.796Z,6.30
2023-03-02T22:51:20.868Z,6.72
2023-03-02T22:53:56.324Z,6.15
2023-03-02T22:56:37.329Z,7.00
2023-03-02T22:59:26.848Z,5.78
2023-03-02T23:02:13.371Z,6.28
2023-03-02T23:04:41.559Z,7.05
2023-03-02T23:07:19.248Z,5.75
2023-03-02T23:09:47.100Z,6.53
2023-03-02T23:12:24.210Z,4.72
2023-03-02T23:14:56.667Z,6.60
2023-03-02T23:17:37.206Z,7.15
2023-03-02T23:20:11.153Z,6.35
2023-03-02T23:22:39.282Z,6.20
2023-03-02T23:25:07.996Z,7.65
2023-03-02T23:27:35.459Z,7.45
2023-03-02T23:30:03.371Z,7.18
2023-03-02T23:32:30.494Z,5.82
2023-03-02T23:34:57.612Z,6.22
2023-03-02T23:37:24.634Z,6.60
2023-03-02T23:39:52.388Z,5.65
2023-03-02T23:42:20.269Z,6.80
2023-03-02T23:44:47.432Z,8.02
2023-03-02T23:47:14.549Z,6.68
2023-03-02T23:49:41.568Z,5.80
2023-03-02T23:52:08.670Z,5.88
2023-03-02T23:54:35.766Z,6.93
2023-03-02T23:57:02.874Z,6.57
2023-03-02T23:59:29.969Z,6.63
